sensor_id;sensor_type;location;lat;lon;timestamp;pressure;altitude;pressure_sealevel;temperature
66299;BMP180;53098;47.658;8.578;2023-12-20T00:00:48;96595.00;;;5.40
66299;BMP180;53098;47.658;8.578;2023-12-20T00:03:13;96598.00;;;5.50
66299;BMP180;53098;47.658;8.578;2023-12-20T00:05:39;96601.00;;;5.50
66299;BMP180;53098;47.658;8.578;2023-12-20T00:08:04;96605.00;;;5.60
66299;BMP180;53098;47.658;8.578;2023-12-20T00:10:30;96588.00;;;5.60
66299;BMP180;53098;47.658;8.578;2023-12-20T00:12:55;96582.00;;;5.60
66299;BMP180;53098;47.658;8.578;2023-12-20T00:15:21;96584.00;;;5.60
66299;BMP180;53098;47.658;8.578;2023-12-20T00:17:46;96577.00;;;5.60
66299;BMP180;53098;47.658;8.578;2023-12-20T00:20:11;96569.00;;;5.60
66299;BMP180;53098;47.658;8.578;2023-12-20T00:22:37;96574.00;;;5.60
66299;BMP180;53098;47.658;8.578;2023-12-20T00:25:03;96571.00;;;5.60
66299;BMP180;53098;47.658;8.578;2023-12-20T00:27:28;96568.00;;;5.50
66299;BMP180;53098;47.658;8.578;2023-12-20T00:29:54;96568.00;;;5.50
66299;BMP180;53098;47.658;8.578;2023-12-20T00:32:19;96556.00;;;5.50
66299;BMP180;53098;47.658;8.578;2023-12-20T00:34:44;96554.00;;;5.40
66299;BMP180;53098;47.658;8.578;2023-12-20T00:37:10;96552.00;;;5.30
66299;BMP180;53098;47.658;8.578;2023-12-20T00:39:35;96543.00;;;5.20
66299;BMP180;53098;47.658;8.578;2023-12-20T00:42:01;96533.00;;;5.30
66299;BMP180;53098;47.658;8.578;2023-12-20T00:44:26;96546.00;;;5.20
66299;BMP180;53098;47.658;8.578;2023-12-20T00:46:52;96547.00;;;5.10
66299;BMP180;53098;47.658;8.578;2023-12-20T00:49:17;96533.00;;;5.10
66299;BMP180;53098;47.658;8.578;2023-12-20T00:51:42;96527.00;;;5.10
66299;BMP180;53098;47.658;8.578;2023-12-20T00:54:08;96547.00;;;5.10
66299;BMP180;53098;47.658;8.578;2023-12-20T00:56:33;96539.00;;;5.10
66299;BMP180;53098;47.658;8.578;2023-12-20T00:58:58;96542.00;;;5.20
66299;BMP180;53098;47.658;8.578;2023-12-20T01:01:24;96537.00;;;5.20
66299;BMP180;53098;47.658;8.578;2023-12-20T01:03:49;96531.00;;;5.30
66299;BMP180;53098;47.658;8.578;2023-12-20T01:06:15;96536.00;;;5.20
66299;BMP180;53098;47.658;8.578;2023-12-20T01:08:40;96540.00;;;5.30
66299;BMP180;53098;47.658;8.578;2023-12-20T01:11:05;96533.00;;;5.30
66299;BMP180;53098;47.658;8.578;2023-12-20T01:13:31;96546.00;;;5.30
66299;BMP180;53098;47.658;8.578;2023-12-20T01:15:56;96545.00;;;5.30
66299;BMP180;53098;47.658;8.578;2023-12-20T01:18:22;96546.00;;;5.30
66299;BMP180;53098;47.658;8.578;2023-12-20T01:20:47;96543.00;;;5.30
66299;BMP180;53098;47.658;8.578;2023-12-20T01:23:12;96538.00;;;5.30
66299;BMP180;53098;47.658;8.578;2023-12-20T01:25:39;96533.00;;;5.30
66299;BMP180;53098;47.658;8.578;2023-12-20T01:28:04;96539.00;;;5.30
66299;BMP180;53098;47.658;8.578;2023-12-20T01:30:30;96536.00;;;5.30
66299;BMP180;53098;47.658;8.578;2023-12-20T01:32:55;96543.00;;;5.30
66299;BMP180;53098;47.658;8.578;2023-12-20T01:35:20;96540.00;;;5.30
66299;BMP180;53098;47.658;8.578;2023-12-20T01:37:46;96541.00;;;5.10
66299;BMP180;53098;47.658;8.578;2023-12-20T01:40:11;96543.00;;;5.10
66299;BMP180;53098;47.658;8.578;2023-12-20T01:42:37;228747.00;;;220.60
66299;BMP180;53098;47.658;8.578;2023-12-20T01:45:02;228747.00;;;220.60
66299;BMP180;53098;47.658;8.578;2023-12-20T01:47:28;228747.00;;;220.60
66299;BMP180;53098;47.658;8.578;2023-12-20T01:49:53;228747.00;;;220.60
66299;BMP180;53098;47.658;8.578;2023-12-20T01:52:20;228747.00;;;220.60
66299;BMP180;53098;47.658;8.578;2023-12-20T01:54:47;228747.00;;;220.60
66299;BMP180;53098;47.658;8.578;2023-12-20T01:57:13;228747.00;;;220.60
66299;BMP180;53098;47.658;8.578;2023-12-20T01:59:39;228747.00;;;220.60
66299;BMP180;53098;47.658;8.578;2023-12-20T02:02:05;228747.00;;;220.60
66299;BMP180;53098;47.658;8.578;2023-12-20T02:04:32;228747.00;;;220.60
66299;BMP180;53098;47.658;8.578;2023-12-20T02:06:58;228747.00;;;220.60
66299;BMP180;53098;47.658;8.578;2023-12-20T02:09:24;228747.00;;;220.60
66299;BMP180;53098;47.658;8.578;2023-12-20T02:11:49;96538.00;;;5.00
66299;BMP180;53098;47.658;8.578;2023-12-20T02:14:15;96531.00;;;5.10
66299;BMP180;53098;47.658;8.578;2023-12-20T02:16:40;96531.00;;;5.10
66299;BMP180;53098;47.658;8.578;2023-12-20T02:19:12;96535.00;;;5.00
66299;BMP180;53098;47.658;8.578;2023-12-20T02:21:38;96531.00;;;5.10
66299;BMP180;53098;47.658;8.578;2023-12-20T02:24:04;96531.00;;;5.10
66299;BMP180;53098;47.658;8.578;2023-12-20T02:26:29;96535.00;;;5.10
66299;BMP180;53098;47.658;8.578;2023-12-20T02:28:55;96533.00;;;5.10
66299;BMP180;53098;47.658;8.578;2023-12-20T02:31:21;96531.00;;;5.00
66299;BMP180;53098;47.658;8.578;2023-12-20T02:33:47;96537.00;;;5.20
66299;BMP180;53098;47.658;8.578;2023-12-20T02:36:12;96527.00;;;5.20
66299;BMP180;53098;47.658;8.578;2023-12-20T02:38:38;96525.00;;;5.10
66299;BMP180;53098;47.658;8.578;2023-12-20T02:41:03;96521.00;;;5.10
66299;BMP180;53098;47.658;8.578;2023-12-20T02:43:28;96521.00;;;5.00
66299;BMP180;53098;47.658;8.578;2023-12-20T02:45:54;96521.00;;;4.90
66299;BMP180;53098;47.658;8.578;2023-12-20T02:48:19;228747.00;;;220.60
66299;BMP180;53098;47.658;8.578;2023-12-20T02:50:46;228747.00;;;220.60
66299;BMP180;53098;47.658;8.578;2023-12-20T02:53:12;228747.00;;;220.60
66299;BMP180;53098;47.658;8.578;2023-12-20T02:55:37;228747.00;;;220.60
66299;BMP180;53098;47.658;8.578;2023-12-20T02:58:03;228747.00;;;220.60
66299;BMP180;53098;47.658;8.578;2023-12-20T03:00:28;228747.00;;;220.60
66299;BMP180;53098;47.658;8.578;2023-12-20T03:02:54;228747.00;;;220.60
66299;BMP180;53098;47.658;8.578;2023-12-20T03:05:19;228747.00;;;220.60
66299;BMP180;53098;47.658;8.578;2023-12-20T03:07:44;228747.00;;;220.60
66299;BMP180;53098;47.658;8.578;2023-12-20T03:10:10;228747.00;;;220.60
66299;BMP180;53098;47.658;8.578;2023-12-20T03:12:35;228747.00;;;220.60
66299;BMP180;53098;47.658;8.578;2023-12-20T03:15:00;228747.00;;;220.60
66299;BMP180;53098;47.658;8.578;2023-12-20T03:17:26;228747.00;;;220.60
66299;BMP180;53098;47.658;8.578;2023-12-20T03:19:51;228747.00;;;220.60
66299;BMP180;53098;47.658;8.578;2023-12-20T03:22:16;228747.00;;;220.60
66299;BMP180;53098;47.658;8.578;2023-12-20T03:24:42;228747.00;;;220.60
66299;BMP180;53098;47.658;8.578;2023-12-20T03:27:07;228747.00;;;220.60
66299;BMP180;53098;47.658;8.578;2023-12-20T03:29:33;228747.00;;;220.60
66299;BMP180;53098;47.658;8.578;2023-12-20T03:31:58;228747.00;;;220.60
66299;BMP180;53098;47.658;8.578;2023-12-20T03:34:23;228747.00;;;220.60
66299;BMP180;53098;47.658;8.578;2023-12-20T03:36:49;228747.00;;;220.60
66299;BMP180;53098;47.658;8.578;2023-12-20T03:39:14;228747.00;;;220.60
66299;BMP180;53098;47.658;8.578;2023-12-20T03:41:40;228747.00;;;220.60
66299;BMP180;53098;47.658;8.578;2023-12-20T03:44:05;228747.00;;;220.60
66299;BMP180;53098;47.658;8.578;2023-12-20T03:46:30;228747.00;;;220.60
66299;BMP180;53098;47.658;8.578;2023-12-20T03:48:56;228747.00;;;220.60
66299;BMP180;53098;47.658;8.578;2023-12-20T03:51:21;228747.00;;;220.60
66299;BMP180;53098;47.658;8.578;2023-12-20T03:53:46;228747.00;;;220.60
66299;BMP180;53098;47.658;8.578;2023-12-20T03:56:12;228747.00;;;220.60
66299;BMP180;53098;47.658;8.578;2023-12-20T03:58:37;228747.00;;;220.60
66299;BMP180;53098;47.658;8.578;2023-12-20T04:01:03;228747.00;;;220.60
66299;BMP180;53098;47.658;8.578;2023-12-20T04:03:28;228747.00;;;220.60
66299;BMP180;53098;47.658;8.578;2023-12-20T04:05:53;228747.00;;;220.60
66299;BMP180;53098;47.658;8.578;2023-12-20T04:08:19;228747.00;;;220.60
66299;BMP180;53098;47.658;8.578;2023-12-20T04:10:45;228747.00;;;220.60
66299;BMP180;53098;47.658;8.578;2023-12-20T04:13:10;228747.00;;;220.60
66299;BMP180;53098;47.658;8.578;2023-12-20T04:15:35;228747.00;;;220.60
66299;BMP180;53098;47.658;8.578;2023-12-20T04:18:01;228747.00;;;220.60
66299;BMP180;53098;47.658;8.578;2023-12-20T04:20:26;228747.00;;;220.60
66299;BMP180;53098;47.658;8.578;2023-12-20T04:22:51;228747.00;;;220.60
66299;BMP180;53098;47.658;8.578;2023-12-20T04:25:17;228747.00;;;220.60
66299;BMP180;53098;47.658;8.578;2023-12-20T04:27:42;228747.00;;;220.60
66299;BMP180;53098;47.658;8.578;2023-12-20T04:30:08;228747.00;;;220.60
66299;BMP180;53098;47.658;8.578;2023-12-20T04:32:33;228747.00;;;220.60
66299;BMP180;53098;47.658;8.578;2023-12-20T04:34:59;228747.00;;;220.60
66299;BMP180;53098;47.658;8.578;2023-12-20T04:37:24;228747.00;;;220.60
66299;BMP180;53098;47.658;8.578;2023-12-20T04:39:50;228747.00;;;220.60
66299;BMP180;53098;47.658;8.578;2023-12-20T04:42:15;228747.00;;;220.60
66299;BMP180;53098;47.658;8.578;2023-12-20T04:44:40;228747.00;;;220.60
66299;BMP180;53098;47.658;8.578;2023-12-20T04:47:06;228747.00;;;220.60
66299;BMP180;53098;47.658;8.578;2023-12-20T04:49:31;228747.00;;;220.60
66299;BMP180;53098;47.658;8.578;2023-12-20T04:51:57;228747.00;;;220.60
66299;BMP180;53098;47.658;8.578;2023-12-20T04:54:22;228747.00;;;220.60
66299;BMP180;53098;47.658;8.578;2023-12-20T04:56:47;228747.00;;;220.60
66299;BMP180;53098;47.658;8.578;2023-12-20T04:59:13;228747.00;;;220.60
66299;BMP180;53098;47.658;8.578;2023-12-20T05:01:38;228747.00;;;220.60
66299;BMP180;53098;47.658;8.578;2023-12-20T05:04:04;228747.00;;;220.60
66299;BMP180;53098;47.658;8.578;2023-12-20T05:06:29;228747.00;;;220.60
66299;BMP180;53098;47.658;8.578;2023-12-20T05:08:55;228747.00;;;220.60
66299;BMP180;53098;47.658;8.578;2023-12-20T05:11:20;228747.00;;;220.60
66299;BMP180;53098;47.658;8.578;2023-12-20T05:13:45;228747.00;;;220.60
66299;BMP180;53098;47.658;8.578;2023-12-20T05:16:11;228747.00;;;220.60
66299;BMP180;53098;47.658;8.578;2023-12-20T05:18:36;228747.00;;;220.60
66299;BMP180;53098;47.658;8.578;2023-12-20T05:21:02;228747.00;;;220.60
66299;BMP180;53098;47.658;8.578;2023-12-20T05:23:27;228747.00;;;220.60
66299;BMP180;53098;47.658;8.578;2023-12-20T05:25:53;228747.00;;;220.60
66299;BMP180;53098;47.658;8.578;2023-12-20T05:28:18;228747.00;;;220.60
66299;BMP180;53098;47.658;8.578;2023-12-20T05:30:43;228747.00;;;220.60
66299;BMP180;53098;47.658;8.578;2023-12-20T05:33:09;228747.00;;;220.60
66299;BMP180;53098;47.658;8.578;2023-12-20T05:35:34;228747.00;;;220.60
66299;BMP180;53098;47.658;8.578;2023-12-20T05:38:00;228747.00;;;220.60
66299;BMP180;53098;47.658;8.578;2023-12-20T05:40:25;228747.00;;;220.60
66299;BMP180;53098;47.658;8.578;2023-12-20T05:42:51;228747.00;;;220.60
66299;BMP180;53098;47.658;8.578;2023-12-20T05:45:17;228747.00;;;220.60
66299;BMP180;53098;47.658;8.578;2023-12-20T05:47:42;228747.00;;;220.60
66299;BMP180;53098;47.658;8.578;2023-12-20T05:50:07;228747.00;;;220.60
66299;BMP180;53098;47.658;8.578;2023-12-20T05:52:33;228747.00;;;220.60
66299;BMP180;53098;47.658;8.578;2023-12-20T05:54:58;228747.00;;;220.60
66299;BMP180;53098;47.658;8.578;2023-12-20T05:57:24;228747.00;;;220.60
66299;BMP180;53098;47.658;8.578;2023-12-20T05:59:49;228747.00;;;220.60
66299;BMP180;53098;47.658;8.578;2023-12-20T06:02:14;228747.00;;;220.60
66299;BMP180;53098;47.658;8.578;2023-12-20T06:04:42;228747.00;;;220.60
66299;BMP180;53098;47.658;8.578;2023-12-20T06:07:08;228747.00;;;220.60
66299;BMP180;53098;47.658;8.578;2023-12-20T06:09:33;228747.00;;;220.60
66299;BMP180;53098;47.658;8.578;2023-12-20T06:11:58;228747.00;;;220.60
66299;BMP180;53098;47.658;8.578;2023-12-20T06:14:24;228747.00;;;220.60
66299;BMP180;53098;47.658;8.578;2023-12-20T06:16:49;228747.00;;;220.60
66299;BMP180;53098;47.658;8.578;2023-12-20T06:19:14;228747.00;;;220.60
66299;BMP180;53098;47.658;8.578;2023-12-20T06:21:40;228747.00;;;220.60
66299;BMP180;53098;47.658;8.578;2023-12-20T06:24:05;228747.00;;;220.60
66299;BMP180;53098;47.658;8.578;2023-12-20T06:26:31;228747.00;;;220.60
66299;BMP180;53098;47.658;8.578;2023-12-20T06:28:56;228747.00;;;220.60
66299;BMP180;53098;47.658;8.578;2023-12-20T06:31:21;228747.00;;;220.60
66299;BMP180;53098;47.658;8.578;2023-12-20T06:33:47;228747.00;;;220.60
66299;BMP180;53098;47.658;8.578;2023-12-20T06:36:13;228747.00;;;220.60
66299;BMP180;53098;47.658;8.578;2023-12-20T06:38:39;228747.00;;;220.60
66299;BMP180;53098;47.658;8.578;2023-12-20T06:41:04;228747.00;;;220.60
66299;BMP180;53098;47.658;8.578;2023-12-20T06:43:29;228747.00;;;220.60
66299;BMP180;53098;47.658;8.578;2023-12-20T06:45:55;228747.00;;;220.60
66299;BMP180;53098;47.658;8.578;2023-12-20T06:48:20;228747.00;;;220.60
66299;BMP180;53098;47.658;8.578;2023-12-20T06:50:46;228747.00;;;220.60
66299;BMP180;53098;47.658;8.578;2023-12-20T06:53:11;228747.00;;;220.60
66299;BMP180;53098;47.658;8.578;2023-12-20T06:55:37;228747.00;;;220.60
66299;BMP180;53098;47.658;8.578;2023-12-20T06:58:03;228747.00;;;220.60
66299;BMP180;53098;47.658;8.578;2023-12-20T07:00:29;228747.00;;;220.60
66299;BMP180;53098;47.658;8.578;2023-12-20T07:02:54;228747.00;;;220.60
66299;BMP180;53098;47.658;8.578;2023-12-20T07:05:19;228747.00;;;220.60
66299;BMP180;53098;47.658;8.578;2023-12-20T07:07:46;228747.00;;;220.60
66299;BMP180;53098;47.658;8.578;2023-12-20T07:10:11;228747.00;;;220.60
66299;BMP180;53098;47.658;8.578;2023-12-20T07:12:36;228747.00;;;220.60
66299;BMP180;53098;47.658;8.578;2023-12-20T07:15:02;228747.00;;;220.60
66299;BMP180;53098;47.658;8.578;2023-12-20T07:17:28;228747.00;;;220.60
66299;BMP180;53098;47.658;8.578;2023-12-20T07:19:53;228747.00;;;220.60
66299;BMP180;53098;47.658;8.578;2023-12-20T07:22:18;228747.00;;;220.60
66299;BMP180;53098;47.658;8.578;2023-12-20T07:24:44;228747.00;;;220.60
66299;BMP180;53098;47.658;8.578;2023-12-20T07:27:09;228747.00;;;220.60
66299;BMP180;53098;47.658;8.578;2023-12-20T07:29:34;228747.00;;;220.60
66299;BMP180;53098;47.658;8.578;2023-12-20T07:32:00;228747.00;;;220.60
66299;BMP180;53098;47.658;8.578;2023-12-20T07:34:25;228747.00;;;220.60
66299;BMP180;53098;47.658;8.578;2023-12-20T07:36:51;228747.00;;;220.60
66299;BMP180;53098;47.658;8.578;2023-12-20T07:39:16;228747.00;;;220.60
66299;BMP180;53098;47.658;8.578;2023-12-20T07:41:41;228747.00;;;220.60
66299;BMP180;53098;47.658;8.578;2023-12-20T07:44:07;228747.00;;;220.60
66299;BMP180;53098;47.658;8.578;2023-12-20T07:46:32;228747.00;;;220.60
66299;BMP180;53098;47.658;8.578;2023-12-20T07:48:58;228747.00;;;220.60
66299;BMP180;53098;47.658;8.578;2023-12-20T07:51:23;228747.00;;;220.60
66299;BMP180;53098;47.658;8.578;2023-12-20T07:53:49;228747.00;;;220.60
66299;BMP180;53098;47.658;8.578;2023-12-20T07:56:18;228747.00;;;220.60
66299;BMP180;53098;47.658;8.578;2023-12-20T07:58:45;228747.00;;;220.60
66299;BMP180;53098;47.658;8.578;2023-12-20T08:01:11;228747.00;;;220.60
66299;BMP180;53098;47.658;8.578;2023-12-20T08:03:37;228747.00;;;220.60
66299;BMP180;53098;47.658;8.578;2023-12-20T08:06:03;228747.00;;;220.60
66299;BMP180;53098;47.658;8.578;2023-12-20T08:08:30;228747.00;;;220.60
66299;BMP180;53098;47.658;8.578;2023-12-20T08:10:55;228747.00;;;220.60
66299;BMP180;53098;47.658;8.578;2023-12-20T08:13:20;228747.00;;;220.60
66299;BMP180;53098;47.658;8.578;2023-12-20T08:15:46;228747.00;;;220.60
66299;BMP180;53098;47.658;8.578;2023-12-20T08:18:11;228747.00;;;220.60
66299;BMP180;53098;47.658;8.578;2023-12-20T08:20:37;228747.00;;;220.60
66299;BMP180;53098;47.658;8.578;2023-12-20T08:23:02;228747.00;;;220.60
66299;BMP180;53098;47.658;8.578;2023-12-20T08:25:27;228747.00;;;220.60
66299;BMP180;53098;47.658;8.578;2023-12-20T08:27:53;228747.00;;;220.60
66299;BMP180;53098;47.658;8.578;2023-12-20T08:30:18;228747.00;;;220.60
66299;BMP180;53098;47.658;8.578;2023-12-20T08:32:44;228747.00;;;220.60
66299;BMP180;53098;47.658;8.578;2023-12-20T08:35:09;228747.00;;;220.60
66299;BMP180;53098;47.658;8.578;2023-12-20T08:37:35;228747.00;;;220.60
66299;BMP180;53098;47.658;8.578;2023-12-20T08:40:00;228747.00;;;220.60
66299;BMP180;53098;47.658;8.578;2023-12-20T08:42:25;228747.00;;;220.60
66299;BMP180;53098;47.658;8.578;2023-12-20T08:44:51;228747.00;;;220.60
66299;BMP180;53098;47.658;8.578;2023-12-20T08:47:16;228747.00;;;220.60
66299;BMP180;53098;47.658;8.578;2023-12-20T08:49:42;228747.00;;;220.60
66299;BMP180;53098;47.658;8.578;2023-12-20T08:52:07;228747.00;;;220.60
66299;BMP180;53098;47.658;8.578;2023-12-20T08:54:32;228747.00;;;220.60
66299;BMP180;53098;47.658;8.578;2023-12-20T08:56:58;228747.00;;;220.60
66299;BMP180;53098;47.658;8.578;2023-12-20T08:59:23;228747.00;;;220.60
66299;BMP180;53098;47.658;8.578;2023-12-20T09:01:49;228747.00;;;220.60
66299;BMP180;53098;47.658;8.578;2023-12-20T09:04:14;228747.00;;;220.60
66299;BMP180;53098;47.658;8.578;2023-12-20T09:06:39;228747.00;;;220.60
66299;BMP180;53098;47.658;8.578;2023-12-20T09:09:05;228747.00;;;220.60
66299;BMP180;53098;47.658;8.578;2023-12-20T09:11:30;228747.00;;;220.60
66299;BMP180;53098;47.658;8.578;2023-12-20T09:13:56;228747.00;;;220.60
66299;BMP180;53098;47.658;8.578;2023-12-20T09:16:21;228747.00;;;220.60
66299;BMP180;53098;47.658;8.578;2023-12-20T09:18:46;228747.00;;;220.60
66299;BMP180;53098;47.658;8.578;2023-12-20T09:21:12;228747.00;;;220.60
66299;BMP180;53098;47.658;8.578;2023-12-20T09:23:37;228747.00;;;220.60
66299;BMP180;53098;47.658;8.578;2023-12-20T09:26:03;228747.00;;;220.60
66299;BMP180;53098;47.658;8.578;2023-12-20T09:28:28;228747.00;;;220.60
66299;BMP180;53098;47.658;8.578;2023-12-20T09:30:54;228747.00;;;220.60
66299;BMP180;53098;47.658;8.578;2023-12-20T09:33:19;228747.00;;;220.60
66299;BMP180;53098;47.658;8.578;2023-12-20T09:35:44;228747.00;;;220.60
66299;BMP180;53098;47.658;8.578;2023-12-20T09:38:10;228747.00;;;220.60
66299;BMP180;53098;47.658;8.578;2023-12-20T09:40:36;228747.00;;;220.60
66299;BMP180;53098;47.658;8.578;2023-12-20T09:43:10;228747.00;;;220.60
66299;BMP180;53098;47.658;8.578;2023-12-20T09:45:36;228747.00;;;220.60
66299;BMP180;53098;47.658;8.578;2023-12-20T09:48:03;228747.00;;;220.60
66299;BMP180;53098;47.658;8.578;2023-12-20T09:50:30;228747.00;;;220.60
66299;BMP180;53098;47.658;8.578;2023-12-20T09:52:56;228747.00;;;220.60
66299;BMP180;53098;47.658;8.578;2023-12-20T09:55:24;228747.00;;;220.60
66299;BMP180;53098;47.658;8.578;2023-12-20T09:57:50;228747.00;;;220.60
66299;BMP180;53098;47.658;8.578;2023-12-20T10:00:16;228747.00;;;220.60
66299;BMP180;53098;47.658;8.578;2023-12-20T10:02:50;228747.00;;;220.60
66299;BMP180;53098;47.658;8.578;2023-12-20T10:05:21;228747.00;;;220.60
66299;BMP180;53098;47.658;8.578;2023-12-20T10:07:48;228747.00;;;220.60
66299;BMP180;53098;47.658;8.578;2023-12-20T10:10:14;228747.00;;;220.60
66299;BMP180;53098;47.658;8.578;2023-12-20T10:12:39;228747.00;;;220.60
66299;BMP180;53098;47.658;8.578;2023-12-20T10:15:05;228747.00;;;220.60
66299;BMP180;53098;47.658;8.578;2023-12-20T10:17:31;228747.00;;;220.60
66299;BMP180;53098;47.658;8.578;2023-12-20T10:19:57;228747.00;;;220.60
66299;BMP180;53098;47.658;8.578;2023-12-20T10:22:22;228747.00;;;220.60
66299;BMP180;53098;47.658;8.578;2023-12-20T10:24:48;228747.00;;;220.60
66299;BMP180;53098;47.658;8.578;2023-12-20T10:27:13;228747.00;;;220.60
66299;BMP180;53098;47.658;8.578;2023-12-20T10:29:39;228747.00;;;220.60
66299;BMP180;53098;47.658;8.578;2023-12-20T10:32:30;228747.00;;;220.60
66299;BMP180;53098;47.658;8.578;2023-12-20T10:34:56;228747.00;;;220.60
66299;BMP180;53098;47.658;8.578;2023-12-20T10:37:21;228747.00;;;220.60
66299;BMP180;53098;47.658;8.578;2023-12-20T10:39:50;228747.00;;;220.60
66299;BMP180;53098;47.658;8.578;2023-12-20T10:42:16;228747.00;;;220.60
66299;BMP180;53098;47.658;8.578;2023-12-20T10:44:42;228747.00;;;220.60
66299;BMP180;53098;47.658;8.578;2023-12-20T10:47:09;228747.00;;;220.60
66299;BMP180;53098;47.658;8.578;2023-12-20T10:49:37;228747.00;;;220.60
66299;BMP180;53098;47.658;8.578;2023-12-20T10:52:03;228747.00;;;220.60
66299;BMP180;53098;47.658;8.578;2023-12-20T10:54:30;228747.00;;;220.60
66299;BMP180;53098;47.658;8.578;2023-12-20T10:56:57;228747.00;;;220.60
66299;BMP180;53098;47.658;8.578;2023-12-20T10:59:23;228747.00;;;220.60
66299;BMP180;53098;47.658;8.578;2023-12-20T11:01:50;228747.00;;;220.60
66299;BMP180;53098;47.658;8.578;2023-12-20T11:04:23;228747.00;;;220.60
66299;BMP180;53098;47.658;8.578;2023-12-20T11:06:58;228747.00;;;220.60
66299;BMP180;53098;47.658;8.578;2023-12-20T11:09:26;228747.00;;;220.60
66299;BMP180;53098;47.658;8.578;2023-12-20T11:12:16;228747.00;;;220.60
66299;BMP180;53098;47.658;8.578;2023-12-20T11:14:48;228747.00;;;220.60
66299;BMP180;53098;47.658;8.578;2023-12-20T11:17:14;228747.00;;;220.60
66299;BMP180;53098;47.658;8.578;2023-12-20T11:22:18;228747.00;;;220.60
66299;BMP180;53098;47.658;8.578;2023-12-20T11:24:44;228747.00;;;220.60
66299;BMP180;53098;47.658;8.578;2023-12-20T11:27:10;228747.00;;;220.60
66299;BMP180;53098;47.658;8.578;2023-12-20T11:29:36;228747.00;;;220.60
66299;BMP180;53098;47.658;8.578;2023-12-20T11:32:03;228747.00;;;220.60
66299;BMP180;53098;47.658;8.578;2023-12-20T11:34:32;228747.00;;;220.60
66299;BMP180;53098;47.658;8.578;2023-12-20T11:36:59;228747.00;;;220.60
66299;BMP180;53098;47.658;8.578;2023-12-20T11:39:26;228747.00;;;220.60
66299;BMP180;53098;47.658;8.578;2023-12-20T11:41:52;228747.00;;;220.60
66299;BMP180;53098;47.658;8.578;2023-12-20T11:44:17;228747.00;;;220.60
66299;BMP180;53098;47.658;8.578;2023-12-20T11:46:44;228747.00;;;220.60
66299;BMP180;53098;47.658;8.578;2023-12-20T11:49:09;228747.00;;;220.60
66299;BMP180;53098;47.658;8.578;2023-12-20T11:51:35;228747.00;;;220.60
66299;BMP180;53098;47.658;8.578;2023-12-20T11:54:00;228747.00;;;220.60
66299;BMP180;53098;47.658;8.578;2023-12-20T11:56:26;228747.00;;;220.60
66299;BMP180;53098;47.658;8.578;2023-12-20T11:58:51;228747.00;;;220.60
66299;BMP180;53098;47.658;8.578;2023-12-20T12:01:19;228747.00;;;220.60
66299;BMP180;53098;47.658;8.578;2023-12-20T12:03:45;228747.00;;;220.60
66299;BMP180;53098;47.658;8.578;2023-12-20T12:06:10;228747.00;;;220.60
66299;BMP180;53098;47.658;8.578;2023-12-20T12:08:36;68992.00;;;17.90
66299;BMP180;53098;47.658;8.578;2023-12-20T12:11:01;313540.00;;;15.60
66299;BMP180;53098;47.658;8.578;2023-12-20T12:13:27;95901.00;;;15.80
66299;BMP180;53098;47.658;8.578;2023-12-20T12:15:53;96234.00;;;16.20
66299;BMP180;53098;47.658;8.578;2023-12-20T12:18:19;228747.00;;;220.60
66299;BMP180;53098;47.658;8.578;2023-12-20T12:20:44;228747.00;;;220.60
66299;BMP180;53098;47.658;8.578;2023-12-20T12:23:10;228747.00;;;220.60
66299;BMP180;53098;47.658;8.578;2023-12-20T12:25:36;96647.00;;;16.10
66299;BMP180;53098;47.658;8.578;2023-12-20T12:28:01;96612.00;;;15.00
66299;BMP180;53098;47.658;8.578;2023-12-20T12:30:27;96614.00;;;15.50
